Terminal Aerodrome Forecast
Issued by NWS Grand Rapids, MI

Home | Current Version | Previous Version | Text Only | Print | Product List | Glossary On
Versions: 1 2 3 4 5 6 7 8 9 10 11 12 13 14 15 16 17 18 19 20 21 22 23 24 25
393
FTUS43 KGRR 010303 AAC
TAFGRR
TAF AMD
KGRR 010303Z 0103/0124 08012KT 4SM -RA OVC004
      TEMPO 0103/0105 2SM RA BR
     FM010500 10015G24KT 5SM -SHRA BR VCTS OVC008CB
     FM010800 18018G28KT P6SM VCSH OVC009
     FM011400 20020G30KT P6SM VCSH OVC025
     FM011800 23017G27KT P6SM VCSH OVC035=

USA.gov is the U.S. government's official web portal to all federal, state and local government web resources and services.